Time;durP1;ratioP1;P1;durP2;ratioP2;P2;SDS_P1;SDS_P2;PMS_P1;PMS_P2;Temp;Humidity;BMP_temperature;BMP_pressure;BME280_temperature;BME280_humidity;BME280_pressure;Samples;Min_cycle;Max_cycle;Signal;HPM_P1;HPM_P2
2021/12/31 00:01:38;;;;;;;5.90;2.30;;;;;;;;;;5033075;28;20250;-71
2021/12/31 00:04:05;;;;;;;7.97;2.67;;;;;;;;;;5033728;28;20211;-72
2021/12/31 00:06:32;;;;;;;8.27;2.60;;;;;;;;;;5033058;28;20235;-71
2021/12/31 00:08:58;;;;;;;7.63;2.90;;;;;;;;;;5033357;28;20219;-71
2021/12/31 00:11:25;;;;;;;7.07;2.50;;;;;;;;;;5033986;28;20288;-71
2021/12/31 00:13:52;;;;;;;6.83;2.63;;;;;;;;;;5032358;28;20264;-71
2021/12/31 00:16:19;;;;;;;4.93;2.07;;;;;;;;;;5032771;28;20270;-71
2021/12/31 00:18:45;;;;;;;6.77;2.53;;;;;;;;;;5033240;28;20219;-71
2021/12/31 00:21:12;;;;;;;6.50;3.17;;;;;;;;;;5031566;28;20207;-71
2021/12/31 00:23:41;;;;;;;9.70;2.67;;;;;;;;;;5033184;28;20247;-71
2021/12/31 00:26:07;;;;;;;7.17;2.70;;;;;;;;;;5031833;28;20230;-71
2021/12/31 00:28:34;;;;;;;7.60;2.40;;;;;;;;;;5031606;28;20269;-71
2021/12/31 00:31:02;;;;;;;8.40;2.60;;;;;;;;;;5033685;28;20219;-71
2021/12/31 00:33:28;;;;;;;8.93;2.07;;;;;;;;;;5032792;28;20215;-71
2021/12/31 00:35:54;;;;;;;6.07;2.40;;;;;;;;;;5031995;28;20207;-71
2021/12/31 00:38:21;;;;;;;6.50;2.33;;;;;;;;;;5031119;28;20214;-71
2021/12/31 00:40:48;;;;;;;5.20;2.20;;;;;;;;;;5033430;28;20272;-71
2021/12/31 00:43:14;;;;;;;4.77;1.87;;;;;;;;;;5032164;28;20219;-72
2021/12/31 00:45:43;;;;;;;6.43;2.57;;;;;;;;;;5032479;28;20261;-72
2021/12/31 00:48:12;;;;;;;7.47;2.30;;;;;;;;;;5033093;28;20227;-72
2021/12/31 00:50:40;;;;;;;9.43;2.97;;;;;;;;;;5031313;28;20212;-71
2021/12/31 00:53:07;;;;;;;5.33;2.07;;;;;;;;;;5031189;28;20289;-71
2021/12/31 00:55:33;;;;;;;7.03;2.13;;;;;;;;;;5032862;28;20289;-71
2021/12/31 00:58:00;;;;;;;5.27;2.10;;;;;;;;;;5029727;28;20211;-70
2021/12/31 01:00:27;;;;;;;5.47;2.10;;;;;;;;;;5032056;28;20211;-70
2021/12/31 01:02:53;;;;;;;7.20;2.80;;;;;;;;;;5032264;28;20593;-71
2021/12/31 01:05:21;;;;;;;5.93;2.10;;;;;;;;;;5032244;28;20215;-72
2021/12/31 01:07:48;;;;;;;5.23;2.33;;;;;;;;;;5031206;28;20780;-70
2021/12/31 01:10:17;;;;;;;3.90;2.10;;;;;;;;;;5033446;28;20231;-72
2021/12/31 01:12:44;;;;;;;7.63;2.10;;;;;;;;;;5032393;28;20250;-71
2021/12/31 01:15:18;;;;;;;6.93;2.50;;;;;;;;;;5030686;28;20223;-71
2021/12/31 01:18:17;;;;;;;6.07;2.53;;;;;;;;;;5032652;28;20697;-71
2021/12/31 01:20:45;;;;;;;6.90;2.30;;;;;;;;;;5031987;28;20216;-71
2021/12/31 01:23:14;;;;;;;7.10;3.20;;;;;;;;;;5031290;28;20321;-71
2021/12/31 01:25:40;;;;;;;6.57;2.40;;;;;;;;;;5031456;28;20855;-71
2021/12/31 01:28:07;;;;;;;6.07;2.23;;;;;;;;;;5031210;28;20864;-71
2021/12/31 01:30:33;;;;;;;4.90;2.67;;;;;;;;;;5030486;28;20212;-72
2021/12/31 01:33:00;;;;;;;4.43;2.47;;;;;;;;;;5032069;28;20231;-71
2021/12/31 01:35:26;;;;;;;5.33;2.60;;;;;;;;;;5032739;28;20210;-72
2021/12/31 01:37:54;;;;;;;5.77;2.77;;;;;;;;;;5034599;28;20218;-71
2021/12/31 01:40:20;;;;;;;6.37;2.93;;;;;;;;;;5035646;28;20285;-71
2021/12/31 01:42:47;;;;;;;10.80;3.37;;;;;;;;;;5037232;28;20218;-71
2021/12/31 01:45:18;;;;;;;6.90;3.10;;;;;;;;;;5035972;28;20214;-71
2021/12/31 01:47:59;;;;;;;5.10;3.03;;;;;;;;;;5036366;28;20234;-71
2021/12/31 01:50:30;;;;;;;6.33;3.20;;;;;;;;;;5036640;28;20246;-71
2021/12/31 01:52:58;;;;;;;6.00;3.23;;;;;;;;;;5034919;28;20350;-72
2021/12/31 01:55:28;;;;;;;6.87;3.63;;;;;;;;;;5033881;28;20239;-72
2021/12/31 01:57:55;;;;;;;6.03;3.80;;;;;;;;;;5035638;28;20206;-71
2021/12/31 02:00:21;;;;;;;6.23;3.53;;;;;;;;;;5036748;28;20219;-71
2021/12/31 02:02:49;;;;;;;5.33;3.67;;;;;;;;;;5034338;28;20230;-71
2021/12/31 02:05:16;;;;;;;6.10;3.70;;;;;;;;;;5036635;28;20743;-71
2021/12/31 02:07:43;;;;;;;7.23;3.97;;;;;;;;;;5035656;28;20235;-71
2021/12/31 02:10:11;;;;;;;6.60;3.57;;;;;;;;;;5035280;28;20591;-71
2021/12/31 02:12:41;;;;;;;6.47;4.03;;;;;;;;;;5035838;28;20211;-71
2021/12/31 02:15:08;;;;;;;6.20;4.17;;;;;;;;;;5035805;28;20211;-70
2021/12/31 02:17:35;;;;;;;6.27;4.17;;;;;;;;;;5032915;28;20718;-71
2021/12/31 02:20:05;;;;;;;8.63;4.90;;;;;;;;;;5034723;28;20261;-71
2021/12/31 02:22:33;;;;;;;8.37;5.43;;;;;;;;;;5036151;28;20296;-71
2021/12/31 02:25:01;;;;;;;5.77;4.73;;;;;;;;;;5033027;28;20249;-71
2021/12/31 02:27:28;;;;;;;8.33;4.77;;;;;;;;;;5033123;28;20238;-71
2021/12/31 02:29:54;;;;;;;6.90;4.60;;;;;;;;;;5035455;28;20214;-71
2021/12/31 02:32:21;;;;;;;8.30;4.37;;;;;;;;;;5032798;28;20303;-72
2021/12/31 02:34:48;;;;;;;5.70;4.30;;;;;;;;;;5034067;28;20214;-71
2021/12/31 02:37:16;;;;;;;6.67;4.27;;;;;;;;;;5036029;28;20211;-72
2021/12/31 02:39:43;;;;;;;5.07;4.40;;;;;;;;;;5033025;28;20293;-72
2021/12/31 02:42:11;;;;;;;5.67;4.17;;;;;;;;;;5035644;28;20310;-72
2021/12/31 02:44:37;;;;;;;5.73;4.33;;;;;;;;;;5035248;28;20686;-72
2021/12/31 02:47:06;;;;;;;5.03;3.90;;;;;;;;;;5032846;28;20242;-71
2021/12/31 02:49:36;;;;;;;6.97;4.20;;;;;;;;;;5034020;28;20671;-72
2021/12/31 02:52:04;;;;;;;6.43;4.20;;;;;;;;;;5034701;28;20209;-72
2021/12/31 02:54:36;;;;;;;5.80;4.40;;;;;;;;;;5034077;28;20215;-71
2021/12/31 02:57:02;;;;;;;7.30;4.90;;;;;;;;;;5033566;28;20236;-71
2021/12/31 02:59:29;;;;;;;5.40;4.30;;;;;;;;;;5035277;28;20261;-72
2021/12/31 03:01:56;;;;;;;4.90;4.40;;;;;;;;;;5033437;28;20789;-72
2021/12/31 03:04:24;;;;;;;5.37;4.47;;;;;;;;;;5032896;28;20619;-72
2021/12/31 03:06:53;;;;;;;4.90;4.40;;;;;;;;;;5033670;28;20695;-72
2021/12/31 03:09:23;;;;;;;5.60;4.50;;;;;;;;;;5033905;28;20265;-72
2021/12/31 03:11:52;;;;;;;5.93;4.90;;;;;;;;;;5033308;28;20314;-72
2021/12/31 03:14:20;;;;;;;7.43;5.27;;;;;;;;;;5033841;28;20211;-72
2021/12/31 03:16:48;;;;;;;5.47;4.63;;;;;;;;;;5034758;28;20227;-72
2021/12/31 03:19:15;;;;;;;4.73;4.33;;;;;;;;;;5032603;28;20219;-72
2021/12/31 03:21:42;;;;;;;8.43;5.17;;;;;;;;;;5032574;28;20210;-71
2021/12/31 03:24:08;;;;;;;6.57;4.63;;;;;;;;;;5031754;28;20246;-72
2021/12/31 03:26:35;;;;;;;8.63;4.70;;;;;;;;;;5032765;28;20343;-72
2021/12/31 03:29:03;;;;;;;7.80;4.83;;;;;;;;;;5034163;28;20226;-71
2021/12/31 03:31:29;;;;;;;6.00;4.47;;;;;;;;;;5032886;28;20227;-73
2021/12/31 03:33:56;;;;;;;6.90;4.30;;;;;;;;;;5032256;28;20293;-73
2021/12/31 03:36:22;;;;;;;5.37;4.30;;;;;;;;;;5033129;28;20682;-73
2021/12/31 03:38:49;;;;;;;6.37;4.20;;;;;;;;;;5034757;28;20210;-73
2021/12/31 03:41:15;;;;;;;5.73;4.10;;;;;;;;;;5032962;28;20226;-70
2021/12/31 03:43:42;;;;;;;5.93;3.73;;;;;;;;;;5033681;28;20870;-70
2021/12/31 03:46:10;;;;;;;6.30;3.80;;;;;;;;;;5034127;28;20703;-73
2021/12/31 03:48:37;;;;;;;7.17;3.50;;;;;;;;;;5031899;28;20976;-70
2021/12/31 03:51:03;;;;;;;5.03;3.67;;;;;;;;;;5032740;28;20265;-70
2021/12/31 03:53:30;;;;;;;5.40;3.30;;;;;;;;;;5034711;28;20696;-71
2021/12/31 03:55:56;;;;;;;3.83;3.20;;;;;;;;;;5032673;28;20231;-71
2021/12/31 03:58:22;;;;;;;4.53;3.67;;;;;;;;;;5032890;28;20203;-71
2021/12/31 04:00:49;;;;;;;5.90;3.60;;;;;;;;;;5034832;28;21139;-71
2021/12/31 04:03:16;;;;;;;5.10;3.23;;;;;;;;;;5033363;28;20702;-71
2021/12/31 04:05:43;;;;;;;5.57;3.23;;;;;;;;;;5032111;28;20563;-71
2021/12/31 04:08:10;;;;;;;5.30;3.30;;;;;;;;;;5033479;28;20234;-71
2021/12/31 04:10:37;;;;;;;5.53;2.90;;;;;;;;;;5032454;28;20232;-72
2021/12/31 04:13:04;;;;;;;4.13;2.70;;;;;;;;;;5032739;28;20226;-71
2021/12/31 04:15:30;;;;;;;4.83;2.73;;;;;;;;;;5033993;28;20207;-71
2021/12/31 04:17:57;;;;;;;4.37;2.60;;;;;;;;;;5031616;28;20226;-71
2021/12/31 04:20:34;;;;;;;3.27;2.70;;;;;;;;;;5033037;28;20208;-71
2021/12/31 04:23:02;;;;;;;6.47;2.60;;;;;;;;;;5033194;28;20252;-70
2021/12/31 04:25:29;;;;;;;5.50;2.97;;;;;;;;;;5032797;28;20231;-71
2021/12/31 04:27:55;;;;;;;4.37;2.50;;;;;;;;;;5031773;28;21189;-71
2021/12/31 04:30:21;;;;;;;6.70;2.80;;;;;;;;;;5032733;28;20704;-71
2021/12/31 04:32:48;;;;;;;5.33;2.83;;;;;;;;;;5032183;28;20238;-71
2021/12/31 04:35:17;;;;;;;3.73;2.17;;;;;;;;;;5032462;28;20216;-70
2021/12/31 04:37:45;;;;;;;4.70;2.63;;;;;;;;;;5033073;28;20214;-71
2021/12/31 04:40:13;;;;;;;4.80;2.40;;;;;;;;;;5032444;28;20698;-71
2021/12/31 04:42:40;;;;;;;4.50;2.30;;;;;;;;;;5032668;28;20207;-71
2021/12/31 04:45:08;;;;;;;3.73;2.20;;;;;;;;;;5032341;28;20936;-71
2021/12/31 04:47:34;;;;;;;4.83;2.20;;;;;;;;;;5033865;28;20289;-72
2021/12/31 04:50:01;;;;;;;4.60;2.67;;;;;;;;;;5031125;28;20203;-71
2021/12/31 04:52:27;;;;;;;4.10;2.27;;;;;;;;;;5032039;28;20249;-71
2021/12/31 04:54:55;;;;;;;5.50;2.37;;;;;;;;;;5034396;28;21180;-71
2021/12/31 04:57:24;;;;;;;3.13;2.00;;;;;;;;;;5031686;28;20219;-71
2021/12/31 04:59:50;;;;;;;3.33;1.63;;;;;;;;;;5032948;28;20524;-71
2021/12/31 05:02:17;;;;;;;4.80;2.03;;;;;;;;;;5032030;28;20545;-71
2021/12/31 05:04:43;;;;;;;3.30;1.90;;;;;;;;;;5031828;28;20265;-71
2021/12/31 05:07:10;;;;;;;4.83;2.00;;;;;;;;;;5032544;28;20231;-71
2021/12/31 05:09:36;;;;;;;5.67;2.00;;;;;;;;;;5033504;28;20238;-71
2021/12/31 05:12:05;;;;;;;3.50;2.07;;;;;;;;;;5032096;28;20488;-71
2021/12/31 05:14:32;;;;;;;3.70;2.23;;;;;;;;;;5032025;28;20224;-71
2021/12/31 05:16:59;;;;;;;3.77;2.30;;;;;;;;;;5032427;28;20227;-72
2021/12/31 05:19:25;;;;;;;3.80;1.97;;;;;;;;;;5030801;28;20269;-71
2021/12/31 05:21:52;;;;;;;2.77;1.67;;;;;;;;;;5032108;28;20219;-71
2021/12/31 05:24:18;;;;;;;3.27;1.80;;;;;;;;;;5032188;28;20732;-72
2021/12/31 05:26:45;;;;;;;2.83;1.87;;;;;;;;;;5029818;28;20287;-72
2021/12/31 05:29:13;;;;;;;2.63;1.70;;;;;;;;;;5031030;28;20223;-72
2021/12/31 05:31:39;;;;;;;8.57;2.72;;;;;;;;;;5029748;28;20449;-77
2021/12/31 05:34:06;;;;;;;5.23;1.87;;;;;;;;;;5030012;28;20277;-76
2021/12/31 05:36:32;;;;;;;4.43;2.30;;;;;;;;;;5029516;28;20254;-76
2021/12/31 05:38:59;;;;;;;3.13;1.90;;;;;;;;;;5032542;28;20214;-77
2021/12/31 05:41:25;;;;;;;5.77;2.10;;;;;;;;;;5031440;28;20280;-77
2021/12/31 05:43:52;;;;;;;2.23;1.50;;;;;;;;;;5032104;28;20215;-76
2021/12/31 05:46:19;;;;;;;4.60;1.73;;;;;;;;;;5032775;28;20211;-77
2021/12/31 05:48:46;;;;;;;4.63;2.10;;;;;;;;;;5031740;28;20586;-77
2021/12/31 05:51:12;;;;;;;2.77;1.77;;;;;;;;;;5031576;28;20257;-77
2021/12/31 05:53:39;;;;;;;5.47;2.20;;;;;;;;;;5033506;28;20215;-77
2021/12/31 05:56:06;;;;;;;5.03;2.37;;;;;;;;;;5033371;28;20228;-80
2021/12/31 05:58:32;;;;;;;2.43;1.70;;;;;;;;;;5031968;28;20223;-77
2021/12/31 06:00:58;;;;;;;3.53;1.60;;;;;;;;;;5031295;28;20626;-77
2021/12/31 06:03:27;;;;;;;4.67;2.30;;;;;;;;;;5031819;28;20577;-77
2021/12/31 06:05:54;;;;;;;3.30;2.10;;;;;;;;;;5031806;28;20212;-77
2021/12/31 06:08:20;;;;;;;4.80;2.17;;;;;;;;;;5031860;28;20722;-77
2021/12/31 06:10:47;;;;;;;2.90;1.87;;;;;;;;;;5031687;28;20230;-77
2021/12/31 06:13:13;;;;;;;3.40;1.97;;;;;;;;;;5031192;28;20202;-77
2021/12/31 06:15:42;;;;;;;5.97;2.77;;;;;;;;;;5032050;28;20215;-77
2021/12/31 06:18:09;;;;;;;3.80;2.23;;;;;;;;;;5031106;28;20361;-77
2021/12/31 06:20:37;;;;;;;2.73;2.00;;;;;;;;;;5031265;28;20234;-77
2021/12/31 06:23:04;;;;;;;5.37;2.30;;;;;;;;;;5034099;28;20219;-77
2021/12/31 06:25:30;;;;;;;5.57;2.13;;;;;;;;;;5034788;28;20243;-77
2021/12/31 06:27:57;;;;;;;4.83;2.50;;;;;;;;;;5034077;28;20293;-77
2021/12/31 06:30:23;;;;;;;3.60;2.10;;;;;;;;;;5034732;28;20268;-77
2021/12/31 06:32:50;;;;;;;2.77;2.13;;;;;;;;;;5033964;28;20645;-77
2021/12/31 06:35:16;;;;;;;4.63;2.07;;;;;;;;;;5034977;28;20265;-77
2021/12/31 06:37:44;;;;;;;3.07;2.53;;;;;;;;;;5033834;28;20215;-77
2021/12/31 06:40:12;;;;;;;3.90;2.10;;;;;;;;;;5034149;28;20370;-77
2021/12/31 06:42:39;;;;;;;4.57;2.00;;;;;;;;;;5034621;28;20211;-77
2021/12/31 06:45:06;;;;;;;4.23;2.23;;;;;;;;;;5035529;28;20211;-77
2021/12/31 06:47:32;;;;;;;3.03;2.30;;;;;;;;;;5035035;28;20235;-77
2021/12/31 06:49:59;;;;;;;3.13;2.30;;;;;;;;;;5033802;28;20268;-76
2021/12/31 06:52:26;;;;;;;3.90;2.27;;;;;;;;;;5035348;28;20223;-77
2021/12/31 06:54:53;;;;;;;3.23;2.07;;;;;;;;;;5036201;28;20641;-77
2021/12/31 06:57:20;;;;;;;4.13;2.30;;;;;;;;;;5035947;28;20214;-77
2021/12/31 06:59:46;;;;;;;4.23;2.40;;;;;;;;;;5035133;28;20238;-77
2021/12/31 07:02:13;;;;;;;4.10;2.40;;;;;;;;;;5033046;28;20289;-77
2021/12/31 07:04:40;;;;;;;4.30;2.27;;;;;;;;;;5034236;28;20226;-77
2021/12/31 07:07:06;;;;;;;4.30;2.00;;;;;;;;;;5033568;28;20276;-77
2021/12/31 07:09:32;;;;;;;3.90;2.30;;;;;;;;;;5033375;28;20243;-78
2021/12/31 07:12:00;;;;;;;5.70;2.30;;;;;;;;;;5033478;28;20215;-77
2021/12/31 07:14:27;;;;;;;4.93;2.40;;;;;;;;;;5033349;28;20706;-77
2021/12/31 07:16:53;;;;;;;3.87;2.40;;;;;;;;;;5030080;28;20338;-77
2021/12/31 07:19:20;;;;;;;3.23;2.13;;;;;;;;;;5032335;28;20215;-77
2021/12/31 07:21:46;;;;;;;3.00;2.17;;;;;;;;;;5031814;28;20215;-77
2021/12/31 07:24:12;;;;;;;5.63;2.20;;;;;;;;;;5031635;28;20750;-78
2021/12/31 07:26:39;;;;;;;2.80;2.20;;;;;;;;;;5032964;28;20233;-77
2021/12/31 07:29:07;;;;;;;5.27;2.10;;;;;;;;;;5031743;28;20218;-77
2021/12/31 07:31:33;;;;;;;2.43;2.13;;;;;;;;;;5034153;28;20290;-77
2021/12/31 07:34:00;;;;;;;3.87;2.33;;;;;;;;;;5031998;28;20284;-77
2021/12/31 07:36:27;;;;;;;4.27;2.13;;;;;;;;;;5031081;28;20632;-77
2021/12/31 07:39:00;;;;;;;6.00;2.67;;;;;;;;;;5031499;28;20245;-77
2021/12/31 07:41:27;;;;;;;3.17;2.00;;;;;;;;;;5032243;28;20247;-77
2021/12/31 07:43:53;;;;;;;3.80;1.90;;;;;;;;;;5034371;28;20212;-77
2021/12/31 07:46:21;;;;;;;3.93;1.73;;;;;;;;;;5031407;28;21121;-77
2021/12/31 07:48:48;;;;;;;3.40;2.00;;;;;;;;;;5035560;28;20230;-76
2021/12/31 07:51:14;;;;;;;3.30;1.90;;;;;;;;;;5032029;28;20203;-77
2021/12/31 07:53:41;;;;;;;4.03;1.83;;;;;;;;;;5032820;28;20310;-77
2021/12/31 07:56:07;;;;;;;2.57;2.07;;;;;;;;;;5033324;28;20762;-77
2021/12/31 07:58:34;;;;;;;3.03;2.17;;;;;;;;;;5031871;28;20266;-76
2021/12/31 08:01:00;;;;;;;3.37;2.40;;;;;;;;;;5034841;28;20221;-77
2021/12/31 08:03:29;;;;;;;3.10;2.10;;;;;;;;;;5031324;28;20222;-77
2021/12/31 08:05:55;;;;;;;4.00;1.90;;;;;;;;;;5032418;28;20566;-77
2021/12/31 08:08:21;;;;;;;3.90;2.10;;;;;;;;;;5030378;28;20816;-77
2021/12/31 08:10:48;;;;;;;3.30;1.80;;;;;;;;;;5032453;28;20231;-78
2021/12/31 08:13:14;;;;;;;2.80;1.87;;;;;;;;;;5031696;28;20214;-77
2021/12/31 08:15:41;;;;;;;4.03;2.10;;;;;;;;;;5026889;28;20216;-77
2021/12/31 08:18:07;;;;;;;3.93;2.27;;;;;;;;;;5027772;28;21316;-77
2021/12/31 08:20:38;;;;;;;3.43;2.10;;;;;;;;;;5026399;28;20226;-77
2021/12/31 08:23:12;;;;;;;4.87;2.40;;;;;;;;;;5026276;28;20228;-77
2021/12/31 08:25:39;;;;;;;4.77;2.30;;;;;;;;;;5025226;28;20241;-76
2021/12/31 08:28:08;;;;;;;3.70;1.93;;;;;;;;;;5024660;28;20207;-77
2021/12/31 08:30:38;;;;;;;6.60;2.30;;;;;;;;;;5025392;28;20775;-77
2021/12/31 08:33:04;;;;;;;3.33;2.03;;;;;;;;;;5025074;28;20259;-77
2021/12/31 08:35:31;;;;;;;4.47;2.10;;;;;;;;;;5024836;28;20226;-77
2021/12/31 08:37:59;;;;;;;5.67;2.53;;;;;;;;;;5026641;28;20215;-77
2021/12/31 08:40:30;;;;;;;2.80;2.10;;;;;;;;;;5022515;28;20230;-78
2021/12/31 08:42:57;;;;;;;4.47;2.83;;;;;;;;;;5024314;28;20207;-77
2021/12/31 08:45:25;;;;;;;4.80;2.10;;;;;;;;;;5029774;28;20788;-77
2021/12/31 08:47:52;;;;;;;4.00;2.10;;;;;;;;;;5027122;28;20244;-78
2021/12/31 08:50:18;;;;;;;2.93;1.83;;;;;;;;;;5022076;28;20658;-78
2021/12/31 08:52:45;;;;;;;2.60;2.00;;;;;;;;;;5030144;28;20204;-78
2021/12/31 08:55:13;;;;;;;4.17;2.33;;;;;;;;;;5030318;28;20708;-78
2021/12/31 08:57:39;;;;;;;3.13;1.93;;;;;;;;;;5025424;28;20211;-78
2021/12/31 09:00:07;;;;;;;3.37;2.20;;;;;;;;;;5024214;28;20576;-78
2021/12/31 09:02:35;;;;;;;3.73;2.30;;;;;;;;;;5023897;28;20593;-78
2021/12/31 09:05:02;;;;;;;3.30;1.90;;;;;;;;;;5026462;28;20219;-77
2021/12/31 09:07:28;;;;;;;3.00;2.30;;;;;;;;;;5023615;28;20298;-78
2021/12/31 09:09:57;;;;;;;4.67;2.70;;;;;;;;;;5025638;28;20229;-77
2021/12/31 09:12:25;;;;;;;5.50;2.27;;;;;;;;;;5023376;28;20253;-77
2021/12/31 09:14:52;;;;;;;3.67;2.33;;;;;;;;;;5026734;28;20313;-77
2021/12/31 09:17:18;;;;;;;4.03;2.20;;;;;;;;;;5022688;28;20276;-77
2021/12/31 09:19:45;;;;;;;2.83;2.30;;;;;;;;;;5025863;28;20203;-77
2021/12/31 09:22:11;;;;;;;5.10;2.47;;;;;;;;;;5023545;28;20214;-77
2021/12/31 09:24:38;;;;;;;4.10;2.50;;;;;;;;;;5023834;28;20782;-77
2021/12/31 09:27:04;;;;;;;4.23;2.20;;;;;;;;;;5023251;28;20273;-77
2021/12/31 09:29:32;;;;;;;5.23;2.50;;;;;;;;;;5024764;28;20222;-77
2021/12/31 09:31:59;;;;;;;4.73;2.33;;;;;;;;;;5023454;28;20231;-77
2021/12/31 09:34:25;;;;;;;4.83;3.17;;;;;;;;;;5024464;28;20298;-77
2021/12/31 09:36:51;;;;;;;5.00;2.83;;;;;;;;;;5024801;28;20284;-77
2021/12/31 09:39:18;;;;;;;2.93;2.10;;;;;;;;;;5023529;28;20250;-77
2021/12/31 09:41:45;;;;;;;4.17;2.93;;;;;;;;;;5025396;28;20702;-78
2021/12/31 09:44:14;;;;;;;4.43;2.93;;;;;;;;;;5024272;28;20562;-78
2021/12/31 09:46:42;;;;;;;3.27;2.60;;;;;;;;;;5031772;28;20349;-77
2021/12/31 09:49:09;;;;;;;4.50;2.27;;;;;;;;;;5026097;28;20231;-78
2021/12/31 09:51:36;;;;;;;4.67;2.57;;;;;;;;;;5028045;28;20579;-78
2021/12/31 09:54:03;;;;;;;3.17;2.27;;;;;;;;;;5027451;28;20214;-78
2021/12/31 09:56:34;;;;;;;3.87;2.63;;;;;;;;;;5027421;28;20646;-79
2021/12/31 09:59:01;;;;;;;4.43;2.50;;;;;;;;;;5031012;28;20217;-78
2021/12/31 10:01:28;;;;;;;2.40;2.20;;;;;;;;;;5030852;28;20281;-78
2021/12/31 10:03:57;;;;;;;4.20;2.30;;;;;;;;;;5030785;28;20226;-78
2021/12/31 10:06:25;;;;;;;4.40;2.40;;;;;;;;;;5027928;28;20206;-78
2021/12/31 10:08:53;;;;;;;5.40;2.57;;;;;;;;;;5028927;28;20301;-78
2021/12/31 10:11:21;;;;;;;4.90;2.80;;;;;;;;;;5029062;28;20605;-78
2021/12/31 10:13:54;;;;;;;6.20;2.30;;;;;;;;;;5029278;28;20263;-78
2021/12/31 10:16:26;;;;;;;2.53;1.97;;;;;;;;;;5029353;28;20218;-78
2021/12/31 10:19:06;;;;;;;3.73;2.63;;;;;;;;;;5027714;28;20219;-78
2021/12/31 10:21:40;;;;;;;4.07;2.87;;;;;;;;;;5027667;28;20210;-78
2021/12/31 10:24:22;;;;;;;3.40;2.40;;;;;;;;;;5029633;28;20273;-78
2021/12/31 10:26:48;;;;;;;5.40;3.07;;;;;;;;;;5029215;28;20226;-78
2021/12/31 10:29:15;;;;;;;5.13;3.20;;;;;;;;;;5030022;28;20223;-78
2021/12/31 10:31:44;;;;;;;5.07;2.90;;;;;;;;;;5028272;28;20304;-78
2021/12/31 10:34:28;;;;;;;4.73;3.23;;;;;;;;;;5028658;28;20660;-78
2021/12/31 10:36:55;;;;;;;4.90;3.00;;;;;;;;;;5028824;28;20294;-78
2021/12/31 10:39:23;;;;;;;4.77;3.37;;;;;;;;;;5028385;28;20277;-78
2021/12/31 10:42:03;;;;;;;3.40;3.07;;;;;;;;;;5029075;28;21380;-78
2021/12/31 10:44:41;;;;;;;3.93;2.80;;;;;;;;;;5029339;28;20577;-78
2021/12/31 10:47:10;;;;;;;4.60;3.00;;;;;;;;;;5026800;28;20251;-78
2021/12/31 10:50:09;;;;;;;3.73;3.10;;;;;;;;;;5027988;28;20697;-78
2021/12/31 10:52:39;;;;;;;3.67;2.80;;;;;;;;;;5030680;28;20639;-78
2021/12/31 10:55:16;;;;;;;4.53;2.80;;;;;;;;;;5031896;28;20636;-78
2021/12/31 10:57:45;;;;;;;3.77;2.57;;;;;;;;;;5034094;28;20202;-78
2021/12/31 11:00:13;;;;;;;5.53;2.70;;;;;;;;;;5033310;28;20204;-78
2021/12/31 11:02:40;;;;;;;4.50;3.00;;;;;;;;;;5032423;28;20234;-78
2021/12/31 11:05:10;;;;;;;4.90;2.50;;;;;;;;;;5033160;28;20217;-78
2021/12/31 11:07:38;;;;;;;7.83;3.30;;;;;;;;;;5033306;28;20227;-78
2021/12/31 11:10:06;;;;;;;2.87;2.60;;;;;;;;;;5034106;28;20254;-78
2021/12/31 11:12:34;;;;;;;2.93;2.47;;;;;;;;;;5034563;28;20261;-78
2021/12/31 11:15:01;;;;;;;3.70;2.60;;;;;;;;;;5032987;28;20203;-77
2021/12/31 11:17:27;;;;;;;5.13;2.80;;;;;;;;;;5031952;28;20284;-78
2021/12/31 11:19:54;;;;;;;4.70;2.83;;;;;;;;;;5030660;28;20218;-77
2021/12/31 11:22:25;;;;;;;5.07;3.13;;;;;;;;;;5030870;28;20666;-78
2021/12/31 11:24:52;;;;;;;5.63;2.83;;;;;;;;;;5030689;28;20234;-77
2021/12/31 11:27:30;;;;;;;6.73;3.03;;;;;;;;;;5031399;28;20773;-78
2021/12/31 11:29:58;;;;;;;4.60;3.80;;;;;;;;;;5030347;28;20297;-77
2021/12/31 11:33:03;;;;;;;5.03;4.23;;;;;;;;;;5031698;28;20702;-77
2021/12/31 11:35:39;;;;;;;12.83;6.37;;;;;;;;;;5016462;28;20223;-76
2021/12/31 11:38:10;;;;;;;11.60;8.67;;;;;;;;;;5030496;28;20607;-76
2021/12/31 11:40:38;;;;;;;10.23;8.97;;;;;;;;;;5032332;28;20231;-77
2021/12/31 11:43:20;;;;;;;5.53;4.53;;;;;;;;;;5030991;28;20219;-76
2021/12/31 11:46:29;;;;;;;5.00;3.53;;;;;;;;;;5032517;28;20209;-77
2021/12/31 11:48:57;;;;;;;6.93;3.83;;;;;;;;;;5003136;28;20215;-77
2021/12/31 11:51:28;;;;;;;4.23;3.20;;;;;;;;;;5030356;28;20235;-77
2021/12/31 11:54:21;;;;;;;7.10;4.83;;;;;;;;;;5031415;28;20215;-77
2021/12/31 11:57:14;;;;;;;5.43;3.60;;;;;;;;;;5030737;28;20233;-76
2021/12/31 11:59:59;;;;;;;7.20;3.23;;;;;;;;;;5031328;28;20224;-76
2021/12/31 12:02:38;;;;;;;4.70;3.10;;;;;;;;;;5029725;28;20616;-77
2021/12/31 12:05:26;;;;;;;6.23;3.47;;;;;;;;;;5029707;28;20720;-76
2021/12/31 12:07:54;;;;;;;4.50;3.00;;;;;;;;;;5030234;28;20214;-77
2021/12/31 12:10:25;;;;;;;5.57;3.00;;;;;;;;;;5030105;28;20238;-77
2021/12/31 12:12:56;;;;;;;5.10;3.60;;;;;;;;;;5031408;28;20667;-77
2021/12/31 12:15:29;;;;;;;5.60;3.90;;;;;;;;;;5029664;28;20243;-76
2021/12/31 12:17:56;;;;;;;5.80;3.77;;;;;;;;;;5030927;28;20318;-76
2021/12/31 12:20:33;;;;;;;5.90;3.80;;;;;;;;;;5029698;28;20211;-75
2021/12/31 12:23:00;;;;;;;9.73;4.47;;;;;;;;;;5029271;28;20291;-75
2021/12/31 12:25:30;;;;;;;5.07;3.63;;;;;;;;;;5029651;28;20642;-75
2021/12/31 12:27:59;;;;;;;9.63;4.20;;;;;;;;;;5028791;28;20215;-76
2021/12/31 12:30:26;;;;;;;5.27;3.93;;;;;;;;;;5030546;28;20388;-76
2021/12/31 12:33:06;;;;;;;5.00;3.60;;;;;;;;;;5029278;28;20280;-76
2021/12/31 12:35:36;;;;;;;5.37;4.80;;;;;;;;;;5027458;28;20322;-75
2021/12/31 12:38:05;;;;;;;7.67;4.07;;;;;;;;;;5030029;28;20318;-74
2021/12/31 12:40:37;;;;;;;5.60;3.90;;;;;;;;;;5029059;28;20275;-75
2021/12/31 12:43:05;;;;;;;5.80;3.37;;;;;;;;;;5029478;28;20209;-75
2021/12/31 12:45:32;;;;;;;6.87;4.00;;;;;;;;;;5029830;28;20211;-75
2021/12/31 12:47:58;;;;;;;7.23;3.80;;;;;;;;;;5029241;28;20365;-74
2021/12/31 12:50:25;;;;;;;4.97;3.00;;;;;;;;;;5029015;28;20231;-74
2021/12/31 12:52:55;;;;;;;5.33;3.57;;;;;;;;;;5028817;28;20214;-75
2021/12/31 12:55:21;;;;;;;8.57;3.93;;;;;;;;;;5028752;28;20328;-74
2021/12/31 12:57:54;;;;;;;5.90;3.73;;;;;;;;;;5030095;28;20256;-74
2021/12/31 13:00:31;;;;;;;5.13;3.77;;;;;;;;;;5029350;28;20536;-74
2021/12/31 13:03:04;;;;;;;7.10;3.47;;;;;;;;;;5027561;28;20226;-74
2021/12/31 13:05:31;;;;;;;7.43;3.67;;;;;;;;;;5027851;28;20265;-74
2021/12/31 13:07:57;;;;;;;6.53;3.33;;;;;;;;;;5028516;28;20674;-74
2021/12/31 13:10:25;;;;;;;6.87;3.70;;;;;;;;;;5029150;28;20225;-75
2021/12/31 13:12:54;;;;;;;8.17;3.70;;;;;;;;;;5030162;28;20218;-74
2021/12/31 13:15:22;;;;;;;6.37;3.57;;;;;;;;;;5028104;28;20217;-75
2021/12/31 13:18:00;;;;;;;4.80;3.20;;;;;;;;;;5030373;28;20706;-75
2021/12/31 13:20:28;;;;;;;5.83;3.27;;;;;;;;;;5029348;28;20865;-75
2021/12/31 13:22:57;;;;;;;7.57;3.13;;;;;;;;;;5029731;28;20232;-75
2021/12/31 13:25:39;;;;;;;6.63;3.03;;;;;;;;;;5027231;28;20227;-74
2021/12/31 13:28:15;;;;;;;6.27;3.63;;;;;;;;;;5026127;28;20219;-74
2021/12/31 13:30:50;;;;;;;7.57;3.33;;;;;;;;;;5028594;28;20870;-75
2021/12/31 13:33:25;;;;;;;6.80;2.87;;;;;;;;;;5034911;28;20313;-75
2021/12/31 13:36:15;;;;;;;8.03;3.07;;;;;;;;;;5035956;28;20210;-74
2021/12/31 13:39:10;;;;;;;5.63;2.83;;;;;;;;;;5035215;28;20217;-75
2021/12/31 13:41:48;;;;;;;4.40;2.93;;;;;;;;;;5034578;28;20756;-74
2021/12/31 13:44:20;;;;;;;6.67;3.20;;;;;;;;;;5030636;28;20552;-74
2021/12/31 13:46:49;;;;;;;5.73;3.23;;;;;;;;;;5034801;28;21605;-75
2021/12/31 13:49:20;;;;;;;8.90;3.53;;;;;;;;;;5035123;28;20199;-75
2021/12/31 13:51:50;;;;;;;18.60;11.43;;;;;;;;;;5032905;28;20258;-75
2021/12/31 13:54:20;;;;;;;5.37;3.00;;;;;;;;;;5033321;28;20211;-76
2021/12/31 13:56:49;;;;;;;9.23;3.03;;;;;;;;;;5034310;28;20293;-75
2021/12/31 13:59:18;;;;;;;6.93;2.83;;;;;;;;;;5032614;28;20206;-75
2021/12/31 14:02:05;;;;;;;6.03;2.93;;;;;;;;;;5025598;28;20289;-76
2021/12/31 14:04:34;;;;;;;5.83;3.40;;;;;;;;;;5027031;28;20743;-76
2021/12/31 14:07:15;;;;;;;6.90;3.10;;;;;;;;;;5027764;28;20264;-76
2021/12/31 14:09:42;;;;;;;6.30;2.93;;;;;;;;;;5021470;28;20219;-76
2021/12/31 14:12:10;;;;;;;6.80;3.80;;;;;;;;;;5015894;28;20893;-76
2021/12/31 14:14:40;;;;;;;6.47;3.40;;;;;;;;;;5017648;28;21069;-75
2021/12/31 14:17:07;;;;;;;7.50;3.40;;;;;;;;;;5014503;28;20301;-77
2021/12/31 14:19:33;;;;;;;7.50;3.27;;;;;;;;;;5017016;28;20249;-78
2021/12/31 14:22:00;;;;;;;8.60;3.83;;;;;;;;;;5015623;28;20266;-76
2021/12/31 14:24:26;;;;;;;9.87;3.40;;;;;;;;;;5012714;28;20243;-76
2021/12/31 14:26:54;;;;;;;5.27;2.80;;;;;;;;;;5014113;28;20614;-75
2021/12/31 14:29:20;;;;;;;5.67;3.13;;;;;;;;;;5014893;28;20207;-75
2021/12/31 14:31:48;;;;;;;8.53;3.70;;;;;;;;;;5017253;28;20277;-76
2021/12/31 14:34:15;;;;;;;7.40;3.30;;;;;;;;;;5014926;28;20307;-76
2021/12/31 14:36:59;;;;;;;9.10;3.10;;;;;;;;;;5017480;28;20218;-76
2021/12/31 14:39:26;;;;;;;11.00;3.40;;;;;;;;;;5012899;28;20212;-76
2021/12/31 14:41:53;;;;;;;8.83;3.10;;;;;;;;;;5016785;28;20218;-76
2021/12/31 14:44:19;;;;;;;6.03;3.40;;;;;;;;;;5010929;28;20215;-76
2021/12/31 14:46:47;;;;;;;12.17;3.10;;;;;;;;;;5014599;28;20232;-76
2021/12/31 14:49:14;;;;;;;7.67;2.90;;;;;;;;;;5009921;28;20212;-76
2021/12/31 14:51:40;;;;;;;7.57;3.57;;;;;;;;;;5012119;28;20309;-76
2021/12/31 14:54:10;;;;;;;7.40;3.10;;;;;;;;;;5011964;28;20204;-77